createdAt,value
2022-09-30T00:01:15.688Z,99597.34
2022-09-30T00:03:49.910Z,99603.52
2022-09-30T00:06:31.343Z,99610.21
2022-09-30T00:13:44.947Z,99605.69
2022-09-30T00:16:23.643Z,99611.54
2022-09-30T00:19:16.344Z,99612.80
2022-09-30T00:21:48.942Z,99612.58
2022-09-30T00:24:25.593Z,99607.59
2022-09-30T00:27:25.207Z,99612.39
2022-09-30T00:29:55.698Z,99613.40
2022-09-30T00:32:37.869Z,99612.52
2022-09-30T00:35:09.055Z,99612.48
2022-09-30T00:37:37.981Z,99615.67
2022-09-30T00:41:06.473Z,99620.70
2022-09-30T00:44:19.753Z,99620.02
2022-09-30T00:47:02.859Z,99617.88
2022-09-30T00:50:11.460Z,99623.08
2022-09-30T00:53:12.633Z,99627.52
2022-09-30T00:56:24.725Z,99628.90
2022-09-30T00:59:00.445Z,99635.56
2022-09-30T01:01:33.264Z,99639.34
2022-09-30T01:04:08.562Z,99636.05
2022-09-30T01:06:38.640Z,99634.02
2022-09-30T01:09:10.523Z,99634.39
2022-09-30T01:11:39.952Z,99641.23
2022-09-30T01:14:21.621Z,99638.02
2022-09-30T01:17:09.319Z,99626.24
2022-09-30T01:19:38.625Z,99624.68
2022-09-30T01:22:27.914Z,99617.67
2022-09-30T01:25:27.264Z,99602.54
2022-09-30T01:28:40.321Z,99601.09
2022-09-30T01:31:46.605Z,99615.89
2022-09-30T01:34:45.407Z,99619.48
2022-09-30T01:37:46.047Z,99628.39
2022-09-30T01:40:33.480Z,99635.36
2022-09-30T01:43:16.969Z,99635.08
2022-09-30T01:45:59.887Z,99639.27
2022-09-30T01:48:47.348Z,99637.83
2022-09-30T01:51:32.892Z,99630.83
2022-09-30T01:54:13.228Z,99634.98
2022-09-30T01:57:43.252Z,99643.34
2022-09-30T02:06:58.121Z,99639.72
2022-09-30T02:09:37.373Z,99642.80
2022-09-30T02:12:12.992Z,99645.45
2022-09-30T02:14:47.108Z,99649.36
2022-09-30T02:17:33.832Z,99653.86
2022-09-30T02:20:15.975Z,99655.15
2022-09-30T02:22:52.585Z,99656.66
2022-09-30T02:25:30.128Z,99656.38
2022-09-30T02:28:04.994Z,99659.27
2022-09-30T02:30:37.018Z,99666.60
2022-09-30T02:33:34.914Z,99670.14
2022-09-30T02:36:31.290Z,99665.21
2022-09-30T02:39:17.184Z,99665.67
2022-09-30T02:41:59.876Z,99666.27
2022-09-30T02:45:13.498Z,99672.16
2022-09-30T03:04:31.857Z,99689.47
2022-09-30T03:07:03.148Z,99684.73
2022-09-30T03:09:37.324Z,99683.89
2022-09-30T03:16:45.330Z,99683.92
2022-09-30T03:19:59.058Z,99698.70
2022-09-30T03:23:15.440Z,99710.41
2022-09-30T03:30:29.513Z,99726.88
2022-09-30T05:23:20.946Z,99793.31
2022-09-30T05:25:52.356Z,99797.77
2022-09-30T05:28:22.868Z,99798.23
2022-09-30T05:31:00.748Z,99795.64
2022-09-30T05:33:30.899Z,99797.16
2022-09-30T05:36:11.790Z,99795.48
2022-09-30T05:38:42.931Z,99794.43
2022-09-30T05:41:15.658Z,99794.15
2022-09-30T05:43:47.612Z,99796.80
2022-09-30T05:46:21.779Z,99800.32
2022-09-30T05:48:53.919Z,99803.76
2022-09-30T05:51:24.293Z,99808.30
2022-09-30T05:53:52.006Z,99809.35
2022-09-30T05:56:22.116Z,99812.54
2022-09-30T05:58:51.326Z,99812.27
2022-09-30T06:01:20.573Z,99816.65
2022-09-30T06:03:51.696Z,99822.30
2022-09-30T06:06:22.684Z,99824.27
2022-09-30T06:08:51.739Z,99827.38
2022-09-30T06:11:23.173Z,99834.08
2022-09-30T06:13:52.118Z,99831.61
2022-09-30T06:16:23.699Z,99833.54
2022-09-30T06:19:16.984Z,99834.02
2022-09-30T06:21:45.356Z,99834.98
2022-09-30T06:24:18.768Z,99844.30
2022-09-30T06:26:51.593Z,99846.55
2022-09-30T06:29:22.160Z,99846.85
2022-09-30T06:31:51.914Z,99844.05
2022-09-30T06:34:22.135Z,99847.97
2022-09-30T06:36:53.373Z,99847.09
2022-09-30T06:39:26.754Z,99839.68
2022-09-30T06:42:01.232Z,99845.47
2022-09-30T06:44:33.933Z,99844.45
2022-09-30T06:47:04.244Z,99844.76
2022-09-30T06:49:47.147Z,99844.01
2022-09-30T06:52:17.111Z,99848.27
2022-09-30T06:54:49.557Z,99845.30
2022-09-30T06:57:29.697Z,99845.97
2022-09-30T07:00:20.385Z,99836.29
2022-09-30T07:02:52.895Z,99840.67
2022-09-30T07:05:42.612Z,99843.89
2022-09-30T07:08:12.261Z,99848.96
2022-09-30T07:10:46.338Z,99851.58
2022-09-30T07:13:17.520Z,99857.20
2022-09-30T07:15:46.322Z,99860.00
2022-09-30T07:18:16.019Z,99861.93
2022-09-30T07:20:53.452Z,99868.63
2022-09-30T07:23:29.646Z,99872.17
2022-09-30T07:26:04.435Z,99867.58
2022-09-30T07:28:35.970Z,99872.55
2022-09-30T07:31:31.456Z,99875.04
2022-09-30T07:34:02.812Z,99879.96
2022-09-30T07:36:33.783Z,99884.36
2022-09-30T07:39:11.067Z,99886.52
2022-09-30T07:41:41.024Z,99890.27
2022-09-30T07:44:14.132Z,99892.36
2022-09-30T07:46:45.514Z,99890.54
2022-09-30T07:49:24.272Z,99891.22
2022-09-30T07:51:55.635Z,99889.14
2022-09-30T07:54:27.647Z,99885.83
2022-09-30T07:57:09.619Z,99894.83
2022-09-30T07:59:42.603Z,99896.54
2022-09-30T08:02:16.601Z,99897.27
2022-09-30T08:04:46.508Z,99899.70
2022-09-30T08:07:19.546Z,99898.56
2022-09-30T08:09:48.054Z,99901.20
2022-09-30T08:12:17.794Z,99897.95
2022-09-30T08:14:48.274Z,99900.80
2022-09-30T08:17:15.963Z,99904.64
2022-09-30T08:19:44.561Z,99905.05
2022-09-30T08:22:16.312Z,99903.31
2022-09-30T08:24:44.744Z,99898.88
2022-09-30T08:27:14.882Z,99900.95
2022-09-30T08:29:54.813Z,99903.77
2022-09-30T08:32:28.298Z,99914.52
2022-09-30T08:34:58.513Z,99918.21
2022-09-30T08:37:26.390Z,99913.73
2022-09-30T08:39:55.945Z,99918.17
2022-09-30T08:42:57.544Z,99925.70
2022-09-30T08:45:34.337Z,99930.73
2022-09-30T08:51:20.771Z,99944.65
2022-09-30T08:53:49.737Z,99946.40
2022-09-30T08:56:30.104Z,99947.74
2022-09-30T08:59:24.534Z,99947.17
2022-09-30T09:05:54.125Z,99938.84
2022-09-30T09:08:38.519Z,99937.70
2022-09-30T09:11:30.389Z,99940.08
2022-09-30T09:14:06.493Z,99942.30
2022-09-30T09:16:50.934Z,99940.86
2022-09-30T09:23:33.282Z,99949.68
2022-09-30T09:26:03.032Z,99944.55
2022-09-30T09:28:59.004Z,99945.11
2022-09-30T09:31:28.278Z,99943.80
2022-09-30T09:34:09.800Z,99945.35
2022-09-30T09:36:43.310Z,99955.34
2022-09-30T09:39:24.532Z,99952.98
2022-09-30T09:42:19.403Z,99954.95
2022-09-30T09:45:23.314Z,99955.19
2022-09-30T09:47:53.012Z,99958.17
2022-09-30T09:50:48.915Z,99954.66
2022-09-30T09:53:46.799Z,99955.25
2022-09-30T09:56:22.905Z,99954.05
2022-09-30T09:59:15.283Z,99954.97
2022-09-30T10:01:50.199Z,99954.23
2022-09-30T10:04:25.682Z,99953.37
2022-09-30T10:07:12.694Z,99952.48
2022-09-30T10:09:42.902Z,99958.23
2022-09-30T10:12:14.269Z,99951.36
2022-09-30T10:15:13.272Z,99957.12
2022-09-30T10:17:51.964Z,99954.03
2022-09-30T10:20:29.549Z,99951.27
2022-09-30T10:23:03.387Z,99948.58
2022-09-30T10:25:30.911Z,99946.48
2022-09-30T10:28:04.414Z,99946.83
2022-09-30T10:30:41.737Z,99944.31
2022-09-30T10:33:17.885Z,99941.34
2022-09-30T10:36:04.892Z,99946.27
2022-09-30T10:38:34.552Z,99949.47
2022-09-30T10:41:04.724Z,99950.27
2022-09-30T10:43:45.222Z,99946.53
2022-09-30T10:46:27.218Z,99946.27
2022-09-30T10:48:59.302Z,99945.64
2022-09-30T10:51:33.613Z,99940.79
2022-09-30T10:54:02.397Z,99941.87
2022-09-30T10:56:37.647Z,99941.74
2022-09-30T10:59:16.239Z,99945.08
2022-09-30T11:01:57.345Z,99942.98
2022-09-30T11:04:39.358Z,99947.41
2022-09-30T11:07:26.971Z,99947.69
2022-09-30T11:09:58.638Z,99943.77
2022-09-30T11:12:44.913Z,99936.71
2022-09-30T11:15:30.781Z,99934.58
2022-09-30T11:18:29.230Z,99937.77
2022-09-30T11:21:03.888Z,99937.58
2022-09-30T11:23:56.882Z,99933.06
2022-09-30T11:26:44.897Z,99934.54
2022-09-30T11:29:35.923Z,99931.77
2022-09-30T11:32:27.907Z,99931.52
2022-09-30T11:35:27.741Z,99934.27
2022-09-30T11:38:08.168Z,99932.33
2022-09-30T11:41:35.513Z,99934.41
2022-09-30T11:44:26.076Z,99940.63
2022-09-30T11:46:57.024Z,99942.91
2022-09-30T11:49:52.045Z,99947.96
2022-09-30T11:52:35.425Z,99951.23
2022-09-30T11:55:31.958Z,99949.01
2022-09-30T11:58:41.058Z,99948.62
2022-09-30T12:01:33.546Z,99946.77
2022-09-30T12:04:25.734Z,99947.77
2022-09-30T12:07:19.983Z,99942.39
2022-09-30T12:10:04.298Z,99945.41
2022-09-30T12:12:33.267Z,99946.10
2022-09-30T12:15:05.534Z,99943.90
2022-09-30T12:17:42.458Z,99942.02
2022-09-30T12:20:21.877Z,99940.44
2022-09-30T12:22:53.785Z,99936.29
2022-09-30T12:25:32.455Z,99931.71
2022-09-30T12:28:32.175Z,99925.45
2022-09-30T12:31:26.663Z,99929.67
2022-09-30T12:34:13.697Z,99931.54
2022-09-30T12:37:01.861Z,99928.45
2022-09-30T12:39:41.829Z,99927.55
2022-09-30T12:42:33.116Z,99927.95
2022-09-30T12:45:30.012Z,99925.77
2022-09-30T12:48:22.953Z,99929.17
2022-09-30T12:50:58.815Z,99932.11
2022-09-30T12:53:32.306Z,99928.77
2022-09-30T12:56:23.135Z,99927.10
2022-09-30T12:59:20.818Z,99938.00
2022-09-30T13:02:34.522Z,99936.31
2022-09-30T13:05:42.577Z,99931.91
2022-09-30T13:08:57.753Z,99929.88
2022-09-30T13:11:56.551Z,99931.11
2022-09-30T13:15:12.342Z,99928.29
2022-09-30T13:17:41.505Z,99928.90
2022-09-30T13:21:03.268Z,99926.73
2022-09-30T13:23:39.328Z,99924.33
2022-09-30T13:26:38.892Z,99925.78
2022-09-30T13:29:08.572Z,99926.02
2022-09-30T13:31:47.102Z,99918.48
2022-09-30T13:34:44.009Z,99920.52
2022-09-30T13:37:40.327Z,99919.59
2022-09-30T13:40:50.096Z,99920.02
2022-09-30T13:43:42.547Z,99924.21
2022-09-30T13:46:37.378Z,99923.78
2022-09-30T13:49:38.996Z,99919.91
2022-09-30T13:53:02.667Z,99922.58
2022-09-30T13:55:55.250Z,99918.33
2022-09-30T13:59:03.091Z,99921.73
2022-09-30T14:01:53.987Z,99923.83
2022-09-30T14:04:48.727Z,99928.32
2022-09-30T14:08:10.594Z,99929.09
2022-09-30T14:23:20.035Z,99932.27
2022-09-30T14:26:20.505Z,99934.36
2022-09-30T14:28:58.394Z,99937.70
2022-09-30T14:31:30.099Z,99941.16
2022-09-30T14:34:18.996Z,99943.30
2022-09-30T14:36:51.136Z,99947.62
2022-09-30T14:39:30.835Z,99946.13
2022-09-30T14:42:05.040Z,99941.95
2022-09-30T14:45:17.268Z,99940.89
2022-09-30T14:47:59.959Z,99947.31
2022-09-30T14:50:37.955Z,99948.70
2022-09-30T14:53:31.766Z,99949.38
2022-09-30T14:56:44.796Z,99950.63
2022-09-30T14:59:45.181Z,99957.38
2022-09-30T15:02:26.661Z,99955.15
2022-09-30T15:05:01.377Z,99958.33
2022-09-30T15:07:35.086Z,99959.80
2022-09-30T15:10:05.621Z,99962.16
2022-09-30T15:12:50.012Z,99959.16
2022-09-30T15:15:37.856Z,99958.81
2022-09-30T15:18:42.096Z,99961.37
2022-09-30T15:21:16.161Z,99960.38
2022-09-30T15:23:53.609Z,99956.47
2022-09-30T15:26:27.078Z,99956.05
2022-09-30T15:28:55.209Z,99957.52
2022-09-30T15:31:30.054Z,99952.17
2022-09-30T15:34:20.492Z,99954.17
2022-09-30T15:36:56.952Z,99960.52
2022-09-30T15:39:49.983Z,99964.84
2022-09-30T15:42:35.045Z,99969.01
2022-09-30T15:45:30.885Z,99971.52
2022-09-30T15:48:08.152Z,99973.16
2022-09-30T15:50:48.831Z,99973.90
2022-09-30T15:53:25.222Z,99972.25
2022-09-30T15:55:57.664Z,99972.39
2022-09-30T15:58:34.098Z,99972.73
2022-09-30T16:01:25.331Z,99980.00
2022-09-30T16:03:59.824Z,99982.60
2022-09-30T16:06:43.062Z,99983.94
2022-09-30T16:09:36.225Z,99985.23
2022-09-30T16:12:10.500Z,99984.23
2022-09-30T16:14:51.185Z,99982.66
2022-09-30T16:17:27.631Z,99985.15
2022-09-30T16:20:21.334Z,99985.84
2022-09-30T16:22:55.411Z,99984.53
2022-09-30T16:25:27.854Z,99986.50
2022-09-30T16:28:02.547Z,99992.96
2022-09-30T16:30:34.574Z,99999.54
2022-09-30T16:33:06.949Z,100002.20
2022-09-30T16:35:35.572Z,100001.98
2022-09-30T16:38:07.512Z,100006.68
2022-09-30T16:40:37.808Z,100005.23
2022-09-30T16:43:12.127Z,100005.96
2022-09-30T16:45:40.723Z,100005.30
2022-09-30T16:48:18.677Z,100011.91
2022-09-30T16:51:04.852Z,100009.02
2022-09-30T16:53:33.519Z,100014.92
2022-09-30T16:56:05.633Z,100018.66
2022-09-30T16:58:35.245Z,100026.33
2022-09-30T17:01:06.355Z,100025.82
2022-09-30T17:03:36.514Z,100022.73
2022-09-30T17:06:07.869Z,100016.71
2022-09-30T17:08:35.960Z,100016.89
2022-09-30T17:11:03.507Z,100019.52
2022-09-30T17:13:33.645Z,100021.55
2022-09-30T17:16:04.866Z,100023.78
2022-09-30T17:19:23.096Z,100024.09
2022-09-30T17:21:54.174Z,100021.70
2022-09-30T17:25:06.064Z,100022.09
2022-09-30T17:27:34.396Z,100020.39
2022-09-30T17:30:07.403Z,100025.07
2022-09-30T17:32:39.920Z,100026.20
2022-09-30T17:35:13.692Z,100031.44
2022-09-30T17:37:49.176Z,100032.70
2022-09-30T17:40:36.446Z,100035.52
2022-09-30T17:43:08.422Z,100037.13
2022-09-30T17:45:43.667Z,100034.25
2022-09-30T17:48:12.006Z,100035.94
2022-09-30T17:50:44.839Z,100041.09
2022-09-30T17:53:35.430Z,100041.71
2022-09-30T17:56:12.601Z,100040.96
2022-09-30T17:58:42.411Z,100044.06
2022-09-30T18:01:13.488Z,100043.56
2022-09-30T18:03:43.001Z,100031.71
2022-09-30T18:06:17.909Z,100032.24
2022-09-30T18:08:51.546Z,100031.20
2022-09-30T18:11:27.394Z,100035.09
2022-09-30T18:14:27.787Z,100037.03
2022-09-30T18:16:58.635Z,100035.73
2022-09-30T18:20:26.678Z,100034.27
2022-09-30T18:22:58.137Z,100038.54
2022-09-30T18:25:26.142Z,100041.73
2022-09-30T18:28:23.074Z,100040.29
2022-09-30T18:31:08.401Z,100045.70
2022-09-30T18:33:43.323Z,100042.48
2022-09-30T18:36:33.818Z,100039.67
2022-09-30T18:39:05.001Z,100039.29
2022-09-30T18:41:43.125Z,100037.64
2022-09-30T18:44:18.762Z,100037.92
2022-09-30T18:46:58.205Z,100035.56
2022-09-30T18:49:31.801Z,100033.05
2022-09-30T18:52:11.507Z,100034.60
2022-09-30T18:55:01.320Z,100032.36
2022-09-30T18:57:32.355Z,100027.00
2022-09-30T19:00:01.836Z,100029.89
2022-09-30T19:02:32.568Z,100028.14
2022-09-30T19:05:00.775Z,100029.84
2022-09-30T19:07:31.043Z,100025.70
2022-09-30T19:10:02.791Z,100026.47
2022-09-30T19:12:36.152Z,100035.40
2022-09-30T19:15:08.364Z,100033.34
2022-09-30T19:17:37.947Z,100029.94
2022-09-30T19:20:09.010Z,100028.77
2022-09-30T19:22:39.958Z,100029.27
2022-09-30T19:25:21.265Z,100031.35
2022-09-30T19:27:56.432Z,100041.05
2022-09-30T19:30:27.723Z,100044.36
2022-09-30T19:32:59.846Z,100045.52
2022-09-30T19:35:40.081Z,100049.20
2022-09-30T19:38:37.149Z,100048.81
2022-09-30T19:41:10.508Z,100043.55
2022-09-30T19:43:44.029Z,100044.98
2022-09-30T19:46:13.441Z,100047.01
2022-09-30T19:48:46.999Z,100047.21
2022-09-30T19:51:20.068Z,100038.41
2022-09-30T19:54:05.511Z,100025.63
2022-09-30T19:56:41.108Z,100026.17
2022-09-30T19:59:11.383Z,100027.17
2022-09-30T20:01:44.595Z,100035.77
2022-09-30T20:04:18.595Z,100038.85
2022-09-30T20:06:48.481Z,100038.51
2022-09-30T20:09:20.077Z,100038.42
2022-09-30T20:11:50.351Z,100035.71
2022-09-30T20:14:38.401Z,100030.67
2022-09-30T20:17:14.066Z,100034.14
2022-09-30T20:20:05.698Z,100040.76
2022-09-30T20:22:53.678Z,100047.77
2022-09-30T20:25:33.132Z,100047.59
2022-09-30T20:28:07.458Z,100043.05
2022-09-30T20:30:48.996Z,100039.92
2022-09-30T20:33:25.347Z,100038.11
2022-09-30T20:36:00.055Z,100039.54
2022-09-30T20:38:33.446Z,100038.20
2022-09-30T20:41:05.570Z,100038.63
2022-09-30T20:44:17.089Z,100039.98
2022-09-30T20:47:06.996Z,100037.83
2022-09-30T20:49:37.327Z,100035.81
2022-09-30T20:52:08.867Z,100031.77
2022-09-30T20:54:39.891Z,100030.76
2022-09-30T20:57:09.221Z,100025.04
2022-09-30T20:59:37.767Z,100015.41
2022-09-30T21:02:08.873Z,100018.64
2022-09-30T21:04:37.814Z,100017.52
2022-09-30T21:07:07.199Z,100017.60
2022-09-30T21:09:38.377Z,100014.73
2022-09-30T21:12:10.836Z,100020.27
2022-09-30T21:14:43.141Z,100020.63
2022-09-30T21:17:15.522Z,100022.83
2022-09-30T21:19:44.391Z,100026.63
2022-09-30T21:22:16.921Z,100026.72
2022-09-30T21:24:45.750Z,100027.09
2022-09-30T21:27:16.922Z,100024.36
2022-09-30T21:29:47.727Z,100025.06
2022-09-30T21:32:19.516Z,100024.54
2022-09-30T21:34:49.389Z,100020.83
2022-09-30T21:37:23.233Z,100021.05
2022-09-30T21:39:50.877Z,100019.98
2022-09-30T21:42:21.257Z,100023.46
2022-09-30T21:44:50.065Z,100025.76
2022-09-30T21:47:22.465Z,100027.21
2022-09-30T21:49:52.982Z,100024.71
2022-09-30T21:52:26.140Z,100025.57
2022-09-30T21:54:59.297Z,100025.71
2022-09-30T21:57:29.552Z,100021.55
2022-09-30T22:00:02.296Z,100019.97
2022-09-30T22:02:31.774Z,100026.52
2022-09-30T22:05:42.686Z,100024.51
2022-09-30T22:08:50.597Z,100022.29
2022-09-30T22:11:55.733Z,100021.23
2022-09-30T22:15:23.708Z,100017.61
2022-09-30T22:22:50.737Z,100027.75
2022-09-30T22:26:07.339Z,100026.63
2022-09-30T22:28:53.189Z,100025.14
2022-09-30T22:32:12.427Z,100022.02
2022-09-30T22:35:48.087Z,100020.27
2022-09-30T22:48:52.467Z,100012.82
2022-09-30T22:51:22.408Z,100006.71
2022-09-30T22:53:55.316Z,100006.23
2022-09-30T22:56:29.564Z,100015.14
2022-09-30T22:59:00.400Z,100011.52
2022-09-30T23:01:32.271Z,100014.07
2022-09-30T23:04:10.375Z,100017.14
2022-09-30T23:06:39.485Z,100018.38
2022-09-30T23:09:12.056Z,100017.64
2022-09-30T23:11:42.801Z,100015.02
2022-09-30T23:14:13.078Z,100019.95
2022-09-30T23:16:42.346Z,100019.71
2022-09-30T23:19:13.843Z,100014.80
2022-09-30T23:21:43.248Z,100012.91
2022-09-30T23:24:12.659Z,100014.98
2022-09-30T23:26:47.302Z,100014.52
2022-09-30T23:29:17.966Z,100016.39
2022-09-30T23:31:51.526Z,100016.70
2022-09-30T23:34:23.487Z,100012.67
2022-09-30T23:36:54.527Z,100017.01
2022-09-30T23:39:23.055Z,100015.05
2022-09-30T23:41:55.344Z,100013.83
2022-09-30T23:44:28.204Z,100015.50
2022-09-30T23:47:17.217Z,100019.06
2022-09-30T23:49:46.046Z,100017.06
2022-09-30T23:52:15.240Z,100014.98
2022-09-30T23:54:45.565Z,100011.92
2022-09-30T23:57:15.146Z,100005.48
2022-09-30T23:59:47.313Z,100003.40
